Terminal Aerodrome Forecast
Issued by NWS Goodland, KS

Home | Current Version | Previous Version | Graphics & Text | Print | Product List | Glossary On
Versions: 1 2 3 4 5 6 7 8 9 10 11 12 13 14 15 16 17
000
FTUS43 KGLD 070527
TAFGLD
TAF
KGLD 070527Z 0706/0806 03006KT 4SM FU SCT110
     FM071400 04006KT 6SM FU SCT140
     FM071800 10010KT P6SM SCT150
     FM080100 13009KT P6SM SCT120=

USA.gov is the U.S. government's official web portal to all federal, state and local government web resources and services.